Time;durP1;ratioP1;P1;durP2;ratioP2;P2;SDS_P1;SDS_P2;PMS_P1;PMS_P2;Temp;Humidity;BMP_temperature;BMP_pressure;BME280_temperature;BME280_humidity;BME280_pressure;Samples;Min_cycle;Max_cycle;Signal;HPM_P1;HPM_P2
2021/04/22 00:01:14;;;;;;;33.58;4.55;;;5.70;67.80;;;;;;5074495;28;20028;-72
2021/04/22 00:03:40;;;;;;;19.20;2.80;;;5.70;68.00;;;;;;5074515;28;20380;-72
2021/04/22 00:06:05;;;;;;;20.08;3.85;;;5.70;68.00;;;;;;5073922;28;20024;-73
2021/04/22 00:08:31;;;;;;;29.27;4.32;;;5.70;68.30;;;;;;5072873;28;20048;-72
2021/04/22 00:10:57;;;;;;;24.67;4.78;;;5.70;68.30;;;;;;5072416;28;20104;-72
2021/04/22 00:13:27;;;;;;;19.35;4.35;;;5.70;68.30;;;;;;5073947;28;20027;-72
2021/04/22 00:15:53;;;;;;;;;;;5.60;68.40;;;;;;5072764;28;20017;-72
2021/04/22 00:18:19;;;;;;;21.83;4.80;;;5.60;68.70;;;;;;5074045;28;19904;-72
2021/04/22 00:20:45;;;;;;;12.77;3.90;;;5.60;69.00;;;;;;5074007;28;20035;-72
2021/04/22 00:23:13;;;;;;;19.05;5.72;;;5.50;68.90;;;;;;5073391;28;20376;-72
2021/04/22 00:25:43;;;;;;;18.92;5.13;;;5.50;69.20;;;;;;5073812;28;20059;-72
2021/04/22 00:28:10;;;;;;;19.17;3.90;;;5.50;69.50;;;;;;5072316;28;20776;-73
2021/04/22 00:30:37;;;;;;;15.43;3.33;;;5.50;69.50;;;;;;5073835;28;20052;-72
2021/04/22 00:33:17;;;;;;;19.85;4.57;;;5.50;69.60;;;;;;5072254;28;20108;-72
2021/04/22 00:35:43;;;;;;;24.80;4.32;;;5.40;69.60;;;;;;5073972;28;20074;-72
2021/04/22 00:38:09;;;;;;;19.23;4.63;;;5.40;69.80;;;;;;5073331;28;20466;-72
2021/04/22 00:40:36;;;;;;;23.27;5.15;;;5.40;69.90;;;;;;5072384;28;20032;-73
2021/04/22 00:43:07;;;;;;;24.70;4.85;;;5.40;69.60;;;;;;5073700;28;20013;-72
2021/04/22 00:45:34;;;;;;;18.73;4.00;;;5.40;69.90;;;;;;5073258;28;20020;-73
2021/04/22 00:48:00;;;;;;;28.85;4.53;;;5.40;69.60;;;;;;5072987;28;20017;-72
2021/04/22 00:50:32;;;;;;;27.42;5.85;;;5.40;69.90;;;;;;5073190;28;20020;-73
2021/04/22 00:52:59;;;;;;;20.85;4.63;;;5.40;70.00;;;;;;5073027;28;20028;-73
2021/04/22 00:55:26;;;;;;;23.88;4.13;;;5.40;70.00;;;;;;5073393;28;20020;-73
2021/04/22 00:57:52;;;;;;;17.83;4.10;;;5.30;70.20;;;;;;5072977;28;20042;-73
2021/04/22 01:00:22;;;;;;;18.40;3.50;;;5.30;70.40;;;;;;5071924;28;20077;-72
2021/04/22 01:02:48;;;;;;;21.30;4.15;;;5.30;70.50;;;;;;5072917;28;20479;-73
2021/04/22 01:05:23;;;;;;;24.40;6.15;;;5.20;70.60;;;;;;5071708;28;20020;-72
2021/04/22 01:07:48;;;;;;;17.77;4.22;;;5.20;70.60;;;;;;5071622;28;20040;-73
2021/04/22 01:10:17;;;;;;;22.23;4.00;;;5.20;71.50;;;;;;5072897;28;20024;-73
2021/04/22 01:12:43;;;;;;;21.05;4.78;;;5.20;71.00;;;;;;5073058;28;20386;-72
2021/04/22 01:15:14;;;;;;;24.45;5.97;;;5.10;70.90;;;;;;5072746;28;20460;-73
2021/04/22 01:17:40;;;;;;;17.65;4.45;;;5.10;70.90;;;;;;5072855;28;20016;-73
2021/04/22 01:20:15;;;;;;;25.48;4.40;;;5.10;71.30;;;;;;5072958;28;20094;-73
2021/04/22 01:22:41;;;;;;;20.73;4.88;;;5.10;71.30;;;;;;5072745;28;20020;-73
2021/04/22 01:25:09;;;;;;;27.00;6.20;;;5.10;71.60;;;;;;5072863;28;20337;-72
2021/04/22 01:27:38;;;;;;;20.27;4.28;;;5.00;71.60;;;;;;5072765;28;20023;-72
2021/04/22 01:30:40;;;;;;;20.98;4.72;;;5.00;71.60;;;;;;5071118;28;20031;-73
2021/04/22 01:33:07;;;;;;;24.77;4.13;;;5.00;71.60;;;;;;5069200;28;20032;-72
2021/04/22 01:35:35;;;;;;;19.52;4.25;;;4.90;71.70;;;;;;5072678;28;20029;-72
2021/04/22 01:38:04;;;;;;;19.10;4.15;;;5.00;72.10;;;;;;5071638;28;20365;-72
2021/04/22 01:40:31;;;;;;;21.02;4.43;;;5.00;71.90;;;;;;5072874;28;20109;-72
2021/04/22 01:42:57;;;;;;;28.38;5.70;;;4.90;72.30;;;;;;5072281;28;20086;-72
2021/04/22 01:45:23;;;;;;;20.02;4.13;;;5.00;72.40;;;;;;5072514;28;20017;-73
2021/04/22 01:47:49;;;;;;;23.70;5.22;;;4.90;72.40;;;;;;5072480;28;20467;-72
2021/04/22 01:50:17;;;;;;;30.95;5.40;;;4.90;72.20;;;;;;5071948;28;20066;-72
2021/04/22 01:52:44;;;;;;;21.40;4.75;;;4.90;72.20;;;;;;5071159;28;20012;-73
2021/04/22 01:55:13;;;;;;;20.45;4.38;;;4.90;72.50;;;;;;5070845;28;20428;-73
2021/04/22 01:57:39;;;;;;;27.05;6.07;;;4.90;72.60;;;;;;5070988;28;20066;-72
2021/04/22 02:00:14;;;;;;;20.40;4.43;;;4.80;72.70;;;;;;5071876;28;20086;-72
2021/04/22 02:02:40;;;;;;;24.67;4.35;;;4.80;72.80;;;;;;5072368;28;20017;-73
2021/04/22 02:05:06;;;;;;;19.98;4.40;;;4.80;73.90;;;;;;5070808;28;20121;-73
2021/04/22 02:07:32;;;;;;;29.30;7.35;;;4.80;73.40;;;;;;5072193;28;20044;-73
2021/04/22 02:09:57;;;;;;;20.83;5.25;;;4.70;73.60;;;;;;5072249;28;20024;-72
2021/04/22 02:12:23;;;;;;;24.05;5.30;;;4.80;73.80;;;;;;5072242;28;20091;-72
2021/04/22 02:14:48;;;;;;;22.33;4.38;;;4.70;73.60;;;;;;5071907;28;20048;-73
2021/04/22 02:17:14;;;;;;;22.23;5.50;;;4.70;73.60;;;;;;5071935;28;20100;-73
2021/04/22 02:19:39;;;;;;;19.85;4.57;;;4.70;73.60;;;;;;5072119;28;20415;-72
2021/04/22 02:22:06;;;;;;;18.30;5.40;;;4.70;73.80;;;;;;5071837;28;20028;-73
2021/04/22 02:24:32;;;;;;;24.48;5.35;;;4.60;73.90;;;;;;5070856;28;20095;-72
2021/04/22 02:26:57;;;;;;;26.02;4.97;;;4.70;73.90;;;;;;5071535;28;20453;-72
2021/04/22 02:29:23;;;;;;;21.95;5.63;;;4.60;73.90;;;;;;5070746;28;20025;-72
2021/04/22 02:31:48;;;;;;;21.00;5.15;;;4.60;74.00;;;;;;5071724;28;20020;-72
2021/04/22 02:34:14;;;;;;;21.33;5.32;;;4.60;74.20;;;;;;5071576;28;20027;-73
2021/04/22 02:36:40;;;;;;;31.45;6.05;;;4.60;74.30;;;;;;5072022;28;20020;-73
2021/04/22 02:39:06;;;;;;;20.70;5.10;;;4.50;74.50;;;;;;5071568;28;20411;-73
2021/04/22 02:41:32;;;;;;;24.35;5.00;;;4.50;74.70;;;;;;5071889;28;20024;-72
2021/04/22 02:43:57;;;;;;;27.75;5.63;;;4.50;74.90;;;;;;5070341;28;20017;-73
2021/04/22 02:46:23;;;;;;;22.52;5.10;;;4.40;74.90;;;;;;5070610;28;20031;-72
2021/04/22 02:48:49;;;;;;;23.25;5.63;;;4.40;75.10;;;;;;5071819;28;20030;-72
2021/04/22 02:51:14;;;;;;;25.10;4.93;;;4.40;75.10;;;;;;5073582;28;20073;-72
2021/04/22 02:53:40;;;;;;;24.63;5.43;;;4.40;75.10;;;;;;5074034;28;20338;-72
2021/04/22 02:56:05;;;;;;;18.90;6.10;;;4.40;75.10;;;;;;5075315;28;20027;-72
2021/04/22 02:58:31;;;;;;;22.10;4.57;;;4.40;75.20;;;;;;5075513;28;20025;-73
2021/04/22 03:00:57;;;;;;;20.73;4.80;;;4.40;75.40;;;;;;5075611;28;20013;-73
2021/04/22 03:03:23;;;;;;;24.70;5.25;;;4.40;75.50;;;;;;5075658;28;20020;-73
2021/04/22 03:05:49;;;;;;;22.33;5.05;;;4.40;75.60;;;;;;5075742;28;20034;-72
2021/04/22 03:08:16;;;;;;;24.25;5.40;;;4.40;75.40;;;;;;5075004;28;20418;-72
2021/04/22 03:10:42;;;;;;;23.17;4.60;;;4.40;75.40;;;;;;5075375;28;20017;-72
2021/04/22 03:13:09;;;;;;;22.90;5.43;;;4.50;75.50;;;;;;5075118;28;20051;-72
2021/04/22 03:15:35;;;;;;;18.08;5.47;;;4.50;75.40;;;;;;5073927;28;20021;-72
2021/04/22 03:18:01;;;;;;;25.85;5.35;;;4.50;75.30;;;;;;5073590;28;20398;-72
2021/04/22 03:20:26;;;;;;;21.15;5.80;;;4.60;75.20;;;;;;5075201;28;20020;-72
2021/04/22 03:22:52;;;;;;;23.17;5.30;;;4.60;75.00;;;;;;5074879;28;20092;-72
2021/04/22 03:25:21;;;;;;;26.63;5.60;;;4.60;74.70;;;;;;5074625;28;20025;-73
2021/04/22 03:27:47;;;;;;;23.30;5.75;;;4.70;75.00;;;;;;5075612;28;20063;-73
2021/04/22 03:30:15;;;;;;;28.20;5.80;;;4.60;74.80;;;;;;5074023;28;20493;-73
2021/04/22 03:32:41;;;;;;;23.52;4.97;;;4.60;74.80;;;;;;5074590;28;20025;-73
2021/04/22 03:35:08;;;;;;;20.48;5.10;;;4.60;74.70;;;;;;5074298;28;20078;-73
2021/04/22 03:37:34;;;;;;;22.83;5.07;;;4.70;74.80;;;;;;5074662;28;20388;-73
2021/04/22 03:40:00;;;;;;;20.75;5.50;;;4.60;74.70;;;;;;5074769;28;20032;-72
2021/04/22 03:42:26;;;;;;;26.20;5.10;;;4.70;74.80;;;;;;5075064;28;20017;-73
2021/04/22 03:44:52;;;;;;;21.75;5.30;;;4.70;74.70;;;;;;5074533;28;20385;-73
2021/04/22 03:47:17;;;;;;;25.13;5.63;;;4.70;74.70;;;;;;5074463;28;20485;-72
2021/04/22 03:49:45;;;;;;;28.58;5.50;;;4.60;74.80;;;;;;5074734;28;20138;-73
2021/04/22 03:52:11;;;;;;;23.00;5.50;;;4.60;75.30;;;;;;5073098;28;20062;-73
2021/04/22 03:54:37;;;;;;;28.77;5.32;;;4.60;74.50;;;;;;5073315;28;20456;-73
2021/04/22 03:57:04;;;;;;;19.52;4.43;;;4.60;74.50;;;;;;5072957;28;20047;-73
2021/04/22 03:59:30;;;;;;;22.52;5.78;;;4.60;74.70;;;;;;5074062;28;20103;-73
2021/04/22 04:01:56;;;;;;;26.30;5.75;;;4.60;74.50;;;;;;5074165;28;20081;-73
2021/04/22 04:04:22;;;;;;;21.60;5.57;;;4.50;74.90;;;;;;5074534;28;20162;-73
2021/04/22 04:06:48;;;;;;;20.17;5.50;;;4.60;74.80;;;;;;5074108;28;20100;-73
2021/04/22 04:09:13;;;;;;;20.40;5.03;;;4.60;74.90;;;;;;5072507;28;20333;-72
2021/04/22 04:11:39;;;;;;;19.15;4.80;;;4.60;74.70;;;;;;5072992;28;20464;-73
2021/04/22 04:14:04;;;;;;;17.38;5.03;;;4.60;74.60;;;;;;5072693;28;20449;-73
2021/04/22 04:16:30;;;;;;;22.10;5.50;;;4.60;74.20;;;;;;5074176;28;20016;-73
2021/04/22 04:18:56;;;;;;;25.17;4.80;;;4.70;74.20;;;;;;5074060;28;20035;-73
2021/04/22 04:21:22;;;;;;;20.88;4.00;;;4.70;74.00;;;;;;5072506;28;20024;-73
2021/04/22 04:23:47;;;;;;;19.40;4.65;;;4.70;73.60;;;;;;5074002;28;20449;-73
2021/04/22 04:26:13;;;;;;;24.08;5.70;;;4.70;74.30;;;;;;5074014;28;20028;-73
2021/04/22 04:28:38;;;;;;;17.42;4.15;;;4.70;73.10;;;;;;5073936;28;20103;-73
2021/04/22 04:31:04;;;;;;;25.85;4.93;;;4.80;72.90;;;;;;5072331;28;20107;-73
2021/04/22 04:33:30;;;;;;;18.42;3.72;;;4.80;72.70;;;;;;5072605;28;20055;-73
2021/04/22 04:35:55;;;;;;;21.27;4.70;;;4.80;73.60;;;;;;5072507;28;20081;-72
2021/04/22 04:38:21;;;;;;;23.05;4.45;;;4.80;72.00;;;;;;5073057;28;20373;-72
2021/04/22 04:40:47;;;;;;;23.23;5.20;;;4.90;71.80;;;;;;5072086;28;20028;-73
2021/04/22 04:43:13;;;;;;;19.67;3.50;;;4.90;71.40;;;;;;5071877;28;20564;-72
2021/04/22 04:45:38;;;;;;;17.73;5.55;;;5.00;71.60;;;;;;5073293;28;20044;-73
2021/04/22 04:48:04;;;;;;;18.73;4.05;;;5.00;71.50;;;;;;5072000;28;20028;-72
2021/04/22 04:50:30;;;;;;;20.83;3.78;;;5.00;70.60;;;;;;5072212;28;20036;-72
2021/04/22 04:52:56;;;;;;;18.65;4.63;;;5.10;70.30;;;;;;5073523;28;20039;-73
2021/04/22 04:55:21;;;;;;;22.77;4.05;;;5.10;69.80;;;;;;5073098;28;20491;-73
2021/04/22 04:57:47;;;;;;;16.52;3.22;;;5.20;69.20;;;;;;5073214;28;20020;-72
2021/04/22 05:00:15;;;;;;;13.75;3.10;;;5.30;68.80;;;;;;5073106;28;20043;-73
2021/04/22 05:02:40;;;;;;;19.20;4.28;;;5.30;68.70;;;;;;5073658;28;20019;-72
2021/04/22 05:05:07;;;;;;;16.35;3.80;;;5.40;69.20;;;;;;5072955;28;20017;-73
2021/04/22 05:07:33;;;;;;;15.55;2.90;;;5.50;68.10;;;;;;5072587;28;20072;-72
2021/04/22 05:09:59;;;;;;;15.43;2.75;;;5.50;67.90;;;;;;5073141;28;20118;-73
2021/04/22 05:12:24;;;;;;;15.43;3.60;;;5.60;67.10;;;;;;5071537;28;20039;-72
2021/04/22 05:14:51;;;;;;;21.83;3.55;;;5.70;67.60;;;;;;5071089;28;20403;-72
2021/04/22 05:17:17;;;;;;;17.00;3.53;;;5.80;67.10;;;;;;5071445;28;20042;-73
2021/04/22 05:19:43;;;;;;;16.75;3.45;;;5.90;67.20;;;;;;5072812;28;20360;-73
2021/04/22 05:22:08;;;;;;;15.57;2.30;;;5.90;66.60;;;;;;5071256;28;20499;-73
2021/04/22 05:24:34;;;;;;;11.73;2.80;;;6.00;70.50;;;;;;5071467;28;20048;-73
2021/04/22 05:27:00;;;;;;;20.33;4.13;;;6.10;66.20;;;;;;5071477;28;20029;-73
2021/04/22 05:29:25;;;;;;;23.17;6.30;;;6.20;66.30;;;;;;5072467;28;20029;-73
2021/04/22 05:31:51;;;;;;;32.80;8.73;;;6.30;65.40;;;;;;5072529;28;20020;-72
2021/04/22 05:34:17;;;;;;;53.25;15.02;;;6.30;65.40;;;;;;5072570;28;20566;-73
2021/04/22 05:36:42;;;;;;;15.20;4.13;;;6.30;64.60;;;;;;5072661;28;20095;-73
2021/04/22 05:39:08;;;;;;;47.35;13.55;;;6.30;67.00;;;;;;5071114;28;20025;-73
2021/04/22 05:41:34;;;;;;;25.67;5.10;;;6.30;64.70;;;;;;5072899;28;20074;-73
2021/04/22 05:44:00;;;;;;;18.90;4.57;;;6.30;64.10;;;;;;5071217;28;20055;-72
2021/04/22 05:46:26;;;;;;;14.82;2.72;;;6.30;64.00;;;;;;5071950;28;20079;-73
2021/04/22 05:48:52;;;;;;;10.63;2.15;;;6.40;63.90;;;;;;5072552;28;20025;-73
2021/04/22 05:51:17;;;;;;;16.15;3.50;;;6.40;63.80;;;;;;5072019;28;20052;-73
2021/04/22 05:53:43;;;;;;;18.02;3.25;;;6.50;64.10;;;;;;5072381;28;20361;-73
2021/04/22 05:56:09;;;;;;;35.53;8.45;;;6.50;63.60;;;;;;5072171;28;20353;-73
2021/04/22 05:58:35;;;;;;;14.68;4.22;;;6.60;63.70;;;;;;5070979;28;20065;-73
2021/04/22 06:01:00;;;;;;;21.25;4.90;;;6.70;63.10;;;;;;5072186;28;20028;-72
2021/04/22 06:03:26;;;;;;;15.95;3.00;;;6.80;63.40;;;;;;5070791;28;20028;-73
2021/04/22 06:05:51;;;;;;;23.58;3.45;;;6.90;64.80;;;;;;5072045;28;20021;-73
2021/04/22 06:08:17;;;;;;;16.48;2.75;;;6.90;63.20;;;;;;5071963;28;20102;-73
2021/04/22 06:10:43;;;;;;;13.35;3.30;;;7.00;63.00;;;;;;5070864;28;20020;-73
2021/04/22 06:13:11;;;;;;;19.52;3.60;;;7.20;61.40;;;;;;5071908;28;20025;-73
2021/04/22 06:15:37;;;;;;;17.45;3.60;;;7.40;61.40;;;;;;5070724;28;20030;-73
2021/04/22 06:18:03;;;;;;;19.33;3.65;;;7.50;62.90;;;;;;5071963;28;20423;-73
2021/04/22 06:20:28;;;;;;;19.13;3.65;;;7.60;60.90;;;;;;5070468;28;20025;-73
2021/04/22 06:22:54;;;;;;;19.83;3.92;;;7.80;60.50;;;;;;5070593;28;20086;-73
2021/04/22 06:25:22;;;;;;;8.68;2.10;;;8.00;60.00;;;;;;5074026;28;20020;-74
2021/04/22 06:27:49;;;;;;;9.13;2.17;;;8.20;69.30;;;;;;5076105;28;20025;-73
2021/04/22 06:30:15;;;;;;;17.02;3.00;;;8.30;66.90;;;;;;5075793;28;20446;-74
2021/04/22 06:32:41;;;;;;;11.25;2.45;;;8.40;62.30;;;;;;5076152;28;20017;-72
2021/04/22 06:35:08;;;;;;;12.52;2.55;;;8.40;58.80;;;;;;5075884;28;20048;-73
2021/04/22 06:37:34;;;;;;;14.20;2.58;;;8.50;60.40;;;;;;5075302;28;20099;-73
2021/04/22 06:39:59;;;;;;;12.18;2.72;;;8.60;63.80;;;;;;5080224;28;20532;-72
2021/04/22 06:42:26;;;;;;;20.92;3.65;;;8.70;61.60;;;;;;5092148;28;20034;-73
2021/04/22 06:44:51;;;;;;;14.63;3.50;;;8.80;58.50;;;;;;5093377;28;20020;-73
2021/04/22 06:47:17;;;;;;;11.65;2.40;;;8.90;58.00;;;;;;5082388;28;20013;-73
2021/04/22 06:49:43;;;;;;;19.50;3.08;;;9.00;57.70;;;;;;5083754;28;20098;-74
2021/04/22 06:52:08;;;;;;;13.30;2.67;;;9.00;57.30;;;;;;5085330;28;20012;-73
2021/04/22 06:54:35;;;;;;;10.32;3.08;;;9.20;57.40;;;;;;5083496;28;20020;-73
2021/04/22 06:57:02;;;;;;;15.57;3.28;;;9.30;59.00;;;;;;5083685;28;20013;-73
2021/04/22 06:59:27;;;;;;;19.35;2.80;;;9.50;55.60;;;;;;5075594;28;20024;-74
2021/04/22 07:01:53;;;;;;;13.75;3.22;;;9.70;55.40;;;;;;5075469;28;20020;-73
2021/04/22 07:04:19;;;;;;;8.75;2.17;;;9.80;58.20;;;;;;5074714;28;20070;-74
2021/04/22 07:06:45;;;;;;;14.98;2.92;;;10.00;58.80;;;;;;5073845;28;20040;-70
2021/04/22 07:09:11;;;;;;;6.38;1.92;;;10.00;54.80;;;;;;5071897;28;20547;-73
2021/04/22 07:11:37;;;;;;;14.30;2.90;;;10.10;67.80;;;;;;5074540;28;20025;-74
2021/04/22 07:14:03;;;;;;;12.77;2.70;;;10.10;59.00;;;;;;5086730;28;20031;-73
2021/04/22 07:16:28;;;;;;;14.30;2.90;;;10.20;58.20;;;;;;5094710;28;20475;-76
2021/04/22 07:18:54;;;;;;;11.68;2.85;;;10.20;54.30;;;;;;5094826;28;20107;-75
2021/04/22 07:21:19;;;;;;;6.57;1.75;;;10.40;57.80;;;;;;5095226;28;20027;-74
2021/04/22 07:23:45;;;;;;;8.32;2.38;;;10.50;67.10;;;;;;5093610;28;20020;-74
2021/04/22 07:26:10;;;;;;;12.93;2.60;;;10.70;68.50;;;;;;5095127;28;20072;-74
2021/04/22 07:28:36;;;;;;;14.40;2.45;;;10.90;66.90;;;;;;5094916;28;20024;-74
2021/04/22 07:31:02;;;;;;;11.65;2.33;;;11.10;67.20;;;;;;5093897;28;20112;-75
2021/04/22 07:33:28;;;;;;;11.25;2.60;;;11.20;62.50;;;;;;5093324;28;20020;-75
2021/04/22 07:35:54;;;;;;;12.65;2.50;;;11.30;53.60;;;;;;5094378;28;20016;-75
2021/04/22 07:38:19;;;;;;;10.20;2.40;;;11.30;62.00;;;;;;5093026;28;20027;-75
2021/04/22 07:40:45;;;;;;;11.15;2.42;;;11.30;56.60;;;;;;5093611;28;20027;-75
2021/04/22 07:43:12;;;;;;;13.82;3.40;;;11.40;59.20;;;;;;5094787;28;20016;-75
2021/04/22 07:45:41;;;;;;;12.40;2.97;;;11.60;51.80;;;;;;5094596;28;20470;-74
2021/04/22 07:48:08;;;;;;;13.27;2.05;;;11.80;56.60;;;;;;5093548;28;20027;-74
2021/04/22 07:50:35;;;;;;;15.13;2.65;;;11.90;63.80;;;;;;5093204;28;20024;-73
2021/04/22 07:53:05;;;;;;;9.57;2.30;;;12.00;64.10;;;;;;5094807;28;20028;-74
2021/04/22 07:55:32;;;;;;;12.10;2.80;;;12.10;53.30;;;;;;5093207;28;20042;-73
2021/04/22 07:58:00;;;;;;;14.32;3.05;;;12.20;49.00;;;;;;5076390;28;20357;-74
2021/04/22 08:00:27;;;;;;;18.10;3.28;;;12.20;49.10;;;;;;5074261;28;20093;-74
2021/04/22 08:02:53;;;;;;;14.18;2.97;;;12.30;50.30;;;;;;5074441;28;20020;-74
2021/04/22 08:05:21;;;;;;;14.32;3.85;;;12.20;48.90;;;;;;5072858;28;20013;-74
2021/04/22 08:07:47;;;;;;;20.58;3.33;;;12.10;52.40;;;;;;5072770;28;20044;-74
2021/04/22 08:10:16;;;;;;;11.50;2.45;;;12.10;52.40;;;;;;5074314;28;20434;-73
2021/04/22 08:12:42;;;;;;;10.98;2.53;;;12.00;60.00;;;;;;5074326;28;20175;-73
2021/04/22 08:15:10;;;;;;;19.40;4.22;;;11.90;51.80;;;;;;5074141;28;20433;-74
2021/04/22 08:17:37;;;;;;;13.38;2.78;;;12.00;50.60;;;;;;5072589;28;20052;-74
2021/04/22 08:20:09;;;;;;;11.13;2.10;;;12.20;55.10;;;;;;5072726;28;20050;-74
2021/04/22 08:22:36;;;;;;;14.55;2.85;;;12.30;59.10;;;;;;5073640;28;20025;-74
2021/04/22 08:25:03;;;;;;;13.95;2.92;;;12.50;55.30;;;;;;5072686;28;20397;-74
2021/04/22 08:27:30;;;;;;;11.10;2.58;;;12.70;51.20;;;;;;5073381;28;20020;-74
2021/04/22 08:29:56;;;;;;;11.30;3.13;;;12.80;59.90;;;;;;5073794;28;20031;-73
2021/04/22 08:32:21;;;;;;;9.55;3.22;;;12.80;52.30;;;;;;5072134;28;20025;-74
2021/04/22 08:34:47;;;;;;;14.95;3.20;;;12.70;53.50;;;;;;5073755;28;20025;-74
2021/04/22 08:37:12;;;;;;;15.18;3.00;;;12.40;55.50;;;;;;5073947;28;20052;-75
2021/04/22 08:39:38;;;;;;;9.35;2.40;;;12.10;58.30;;;;;;5073101;28;20025;-75
2021/04/22 08:42:04;;;;;;;12.05;2.40;;;12.00;59.20;;;;;;5073492;28;20441;-74
2021/04/22 08:44:30;;;;;;;12.45;2.38;;;12.00;66.40;;;;;;5073306;28;20089;-74
2021/04/22 08:46:56;;;;;;;13.50;3.00;;;12.40;65.00;;;;;;5072157;28;20444;-74
2021/04/22 08:49:22;;;;;;;11.77;2.10;;;12.70;56.10;;;;;;5072169;28;20461;-72
2021/04/22 08:51:48;;;;;;;7.30;1.77;;;13.10;62.50;;;;;;5072914;28;20027;-72
2021/04/22 08:54:14;;;;;;;17.30;3.03;;;13.30;60.00;;;;;;5073165;28;20107;-73
2021/04/22 08:56:41;;;;;;;16.85;2.72;;;13.50;56.10;;;;;;5072789;28;20017;-74
2021/04/22 08:59:06;;;;;;;12.85;2.63;;;13.50;46.20;;;;;;5071113;28;20032;-73
2021/04/22 09:01:32;;;;;;;7.22;1.85;;;13.70;45.20;;;;;;5071438;28;20337;-72
2021/04/22 09:04:00;;;;;;;14.43;2.65;;;13.70;44.50;;;;;;5072903;28;20028;-73
2021/04/22 09:06:28;;;;;;;10.50;2.03;;;13.70;51.10;;;;;;5071250;28;20428;-74
2021/04/22 09:08:54;;;;;;;12.10;2.97;;;13.90;50.90;;;;;;5072864;28;20040;-74
2021/04/22 09:11:23;;;;;;;8.68;1.70;;;14.30;57.30;;;;;;5071416;28;20021;-72
2021/04/22 09:13:50;;;;;;;5.55;1.52;;;14.60;60.00;;;;;;5071475;28;20012;-74
2021/04/22 09:16:19;;;;;;;9.95;2.67;;;14.90;55.60;;;;;;5072605;28;20111;-74
2021/04/22 09:18:50;;;;;;;11.68;2.85;;;15.00;54.30;;;;;;5072493;28;20158;-74
2021/04/22 09:21:20;;;;;;;8.77;2.75;;;15.00;57.80;;;;;;5068211;28;20028;-74
2021/04/22 09:23:57;;;;;;;12.02;2.65;;;15.00;59.00;;;;;;5064654;28;20032;-74
2021/04/22 09:26:22;;;;;;;14.77;3.35;;;14.70;46.60;;;;;;5072329;28;20028;-74
2021/04/22 09:28:48;;;;;;;15.23;3.15;;;14.60;57.10;;;;;;5070973;28;20451;-73
2021/04/22 09:31:27;;;;;;;9.00;3.10;;;14.70;56.10;;;;;;5070697;28;20100;-74
2021/04/22 09:34:12;;;;;;;13.05;3.50;;;14.90;43.50;;;;;;5071736;28;20032;-75
2021/04/22 09:36:56;;;;;;;13.02;2.85;;;15.10;43.90;;;;;;5071878;28;20016;-74
2021/04/22 09:39:28;;;;;;;9.25;2.00;;;15.00;50.50;;;;;;5070499;28;20059;-74
2021/04/22 09:42:00;;;;;;;10.68;2.38;;;15.00;51.00;;;;;;5070735;28;20020;-74
2021/04/22 09:44:27;;;;;;;15.35;3.08;;;15.20;55.50;;;;;;5071871;28;20012;-74
2021/04/22 09:47:11;;;;;;;8.70;3.05;;;15.30;49.10;;;;;;5072064;28;20017;-74
2021/04/22 09:49:44;;;;;;;9.23;2.25;;;15.60;49.80;;;;;;5071483;28;20423;-74
2021/04/22 09:52:10;;;;;;;8.38;1.73;;;15.80;56.40;;;;;;5070569;28;20027;-74
2021/04/22 09:54:51;;;;;;;9.48;2.30;;;15.90;59.10;;;;;;5070635;28;20021;-74
2021/04/22 09:57:27;;;;;;;12.18;3.03;;;16.00;52.80;;;;;;5072132;28;20103;-74
2021/04/22 09:59:53;;;;;;;11.38;2.60;;;16.10;54.50;;;;;;5071563;28;20067;-73
2021/04/22 10:02:19;;;;;;;12.10;2.38;;;16.30;53.10;;;;;;5071208;28;20129;-73
2021/04/22 10:04:47;;;;;;;9.00;1.80;;;16.60;53.60;;;;;;5071264;28;20107;-73
2021/04/22 10:07:29;;;;;;;7.30;1.25;;;16.90;54.50;;;;;;5070879;28;20149;-73
2021/04/22 10:09:58;;;;;;;6.18;1.75;;;17.30;60.30;;;;;;5071966;28;20123;-73
2021/04/22 10:12:34;;;;;;;7.47;1.27;;;17.50;60.10;;;;;;5071925;28;20024;-73
2021/04/22 10:15:09;;;;;;;11.27;2.75;;;17.30;61.30;;;;;;5071997;28;20032;-73
2021/04/22 10:17:36;;;;;;;4.57;1.17;;;17.00;59.80;;;;;;5071604;28;20016;-72
2021/04/22 10:20:12;;;;;;;4.38;2.05;;;16.80;63.40;;;;;;5071546;28;20020;-74
2021/04/22 10:22:40;;;;;;;6.82;1.60;;;16.80;60.10;;;;;;5071401;28;20036;-73
2021/04/22 10:25:12;;;;;;;10.13;1.80;;;16.80;64.20;;;;;;5071258;28;20508;-73
2021/04/22 10:27:39;;;;;;;12.63;2.35;;;16.90;55.00;;;;;;5071474;28;20051;-72
2021/04/22 10:30:08;;;;;;;6.18;1.75;;;17.10;52.60;;;;;;5071608;28;20047;-73
2021/04/22 10:32:34;;;;;;;8.45;1.30;;;17.30;57.30;;;;;;5071118;28;20507;-72
2021/04/22 10:35:02;;;;;;;13.20;1.58;;;17.40;61.40;;;;;;5071431;28;20059;-72
2021/04/22 10:37:30;;;;;;;6.68;1.70;;;17.50;63.10;;;;;;5070975;28;20091;-72
2021/04/22 10:39:57;;;;;;;8.15;1.75;;;17.60;52.50;;;;;;5071446;28;20383;-74
2021/04/22 10:42:24;;;;;;;9.30;2.08;;;17.80;52.80;;;;;;5069965;28;20025;-75
2021/04/22 10:44:50;;;;;;;10.75;1.80;;;18.00;60.30;;;;;;5070324;28;20055;-74
2021/04/22 10:47:22;;;;;;;6.85;2.03;;;18.00;60.10;;;;;;5069852;28;20071;-74
2021/04/22 10:49:48;;;;;;;8.43;1.95;;;18.10;61.20;;;;;;5071154;28;20129;-75
2021/04/22 10:52:15;;;;;;;8.70;1.77;;;18.10;49.60;;;;;;5071076;28;20107;-75
2021/04/22 10:54:43;;;;;;;8.27;2.55;;;18.00;54.20;;;;;;5069731;28;20116;-75
2021/04/22 10:57:16;;;;;;;9.93;2.13;;;18.10;52.10;;;;;;5071438;28;20487;-75
2021/04/22 10:59:44;;;;;;;9.30;2.47;;;18.10;49.70;;;;;;5071333;28;20021;-75
2021/04/22 11:02:15;;;;;;;12.35;2.60;;;18.00;47.00;;;;;;5070204;28;20012;-75
2021/04/22 11:04:41;;;;;;;7.55;1.90;;;18.30;38.50;;;;;;5070100;28;20390;-75
2021/04/22 11:07:24;;;;;;;11.35;2.88;;;18.50;50.80;;;;;;5053358;28;20025;-75
2021/04/22 11:10:00;;;;;;;12.45;2.85;;;18.40;53.30;;;;;;5071297;28;20081;-75
2021/04/22 11:12:30;;;;;;;7.97;2.47;;;18.40;37.20;;;;;;5073125;28;20162;-75
2021/04/22 11:14:57;;;;;;;11.85;2.67;;;18.20;38.00;;;;;;5073800;28;20020;-74
2021/04/22 11:17:39;;;;;;;8.35;1.75;;;18.10;40.50;;;;;;5074781;28;20012;-74
2021/04/22 11:20:19;;;;;;;4.63;1.08;;;18.00;57.20;;;;;;5074968;28;20031;-75
2021/04/22 11:22:46;;;;;;;5.57;1.17;;;18.20;60.10;;;;;;5075262;28;20108;-75
2021/04/22 11:25:18;;;;;;;8.95;1.90;;;18.30;60.50;;;;;;5074875;28;20020;-74
2021/04/22 11:27:53;;;;;;;5.85;1.65;;;18.40;59.90;;;;;;5073552;28;20411;-74
2021/04/22 11:30:26;;;;;;;8.02;1.48;;;18.30;55.50;;;;;;5074370;28;20093;-74
2021/04/22 11:32:55;;;;;;;7.82;2.33;;;18.20;61.20;;;;;;5073239;28;20107;-74
2021/04/22 11:35:23;;;;;;;10.00;2.03;;;18.40;54.00;;;;;;5074491;28;20020;-74
2021/04/22 11:37:55;;;;;;;4.30;1.23;;;18.60;53.60;;;;;;5074384;28;20012;-74
2021/04/22 11:40:24;;;;;;;11.55;2.33;;;18.70;59.80;;;;;;5074017;28;20063;-74
2021/04/22 11:42:53;;;;;;;8.25;1.80;;;18.90;42.00;;;;;;5073249;28;20043;-74
2021/04/22 11:45:21;;;;;;;12.95;2.25;;;19.10;57.10;;;;;;5074142;28;20029;-75
2021/04/22 11:47:56;;;;;;;5.72;1.80;;;19.30;56.30;;;;;;5074690;28;20417;-74
2021/04/22 11:50:24;;;;;;;10.55;1.77;;;19.40;57.90;;;;;;5072996;28;20033;-75
2021/04/22 11:52:58;;;;;;;9.90;1.90;;;19.40;56.90;;;;;;5073198;28;20023;-74
2021/04/22 11:55:33;;;;;;;6.22;1.95;;;19.20;58.40;;;;;;5073867;28;20416;-75
2021/04/22 11:58:08;;;;;;;5.57;1.25;;;19.10;59.00;;;;;;5074260;28;20334;-74
2021/04/22 12:00:41;;;;;;;6.53;1.70;;;18.90;60.20;;;;;;5074030;28;20028;-75
2021/04/22 12:03:12;;;;;;;11.93;3.10;;;19.00;60.60;;;;;;5073946;28;20024;-75
2021/04/22 12:05:39;;;;;;;6.15;1.70;;;19.00;57.70;;;;;;5073880;28;20334;-75
2021/04/22 12:08:10;;;;;;;8.43;2.08;;;19.00;61.10;;;;;;5072676;28;20044;-75
2021/04/22 12:10:43;;;;;;;5.97;1.58;;;19.20;50.90;;;;;;5072513;28;20085;-75
2021/04/22 12:13:10;;;;;;;7.90;1.90;;;19.30;55.40;;;;;;5074426;28;20012;-75
2021/04/22 12:15:50;;;;;;;10.23;2.15;;;19.40;44.30;;;;;;5072583;28;20670;-74
2021/04/22 12:18:20;;;;;;;;;;;19.40;53.60;;;;;;5072792;28;20394;-74
2021/04/22 12:20:46;;;;;;;8.27;2.35;;;19.40;44.80;;;;;;5072802;28;19911;-74
2021/04/22 12:23:11;;;;;;;11.45;2.65;;;19.50;47.10;;;;;;5073581;28;20020;-73
2021/04/22 12:25:37;;;;;;;9.30;1.88;;;19.30;50.90;;;;;;5073691;28;20357;-75
2021/04/22 12:28:07;;;;;;;7.78;1.67;;;19.20;59.50;;;;;;5073821;28;20021;-75
2021/04/22 12:30:46;;;;;;;4.38;1.63;;;19.30;50.00;;;;;;5073556;28;20013;-74
2021/04/22 12:33:18;;;;;;;6.23;1.67;;;19.40;58.40;;;;;;5072416;28;20522;-74
2021/04/22 12:35:51;;;;;;;6.40;1.98;;;19.40;57.40;;;;;;5072114;28;20028;-74
2021/04/22 12:38:25;;;;;;;6.88;2.00;;;19.60;57.40;;;;;;5072011;28;20043;-75
2021/04/22 12:41:07;;;;;;;8.35;1.38;;;19.80;60.00;;;;;;5072028;28;20032;-74
2021/04/22 12:43:34;;;;;;;9.00;2.42;;;19.50;57.90;;;;;;5071791;28;20013;-74
2021/04/22 12:46:10;;;;;;;4.63;1.38;;;19.10;60.10;;;;;;5072143;28;20100;-74
2021/04/22 12:48:36;;;;;;;9.95;1.65;;;19.10;59.30;;;;;;5071537;28;20024;-75